createdAt,value
2022-12-23T00:01:52.842Z,29.80
2022-12-23T00:04:24.490Z,28.00
2022-12-23T00:06:56.310Z,27.83
2022-12-23T00:09:23.089Z,27.67
2022-12-23T00:12:13.155Z,26.70
2022-12-23T00:14:58.603Z,26.40
2022-12-23T00:17:27.753Z,25.63
2022-12-23T00:19:57.232Z,27.23
2022-12-23T00:22:42.856Z,25.07
2022-12-23T00:25:09.904Z,26.83
2022-12-23T00:27:38.951Z,25.97
2022-12-23T00:30:06.878Z,26.23
2022-12-23T00:32:36.357Z,24.90
2022-12-23T00:35:03.230Z,27.37
2022-12-23T00:37:33.080Z,26.03
2022-12-23T00:40:32.021Z,26.57
2022-12-23T00:42:59.660Z,25.73
2022-12-23T00:45:26.542Z,26.70
2022-12-23T00:48:11.615Z,28.43
2022-12-23T00:50:39.252Z,27.83
2022-12-23T00:53:06.857Z,29.40
2022-12-23T00:55:36.090Z,31.30
2022-12-23T00:58:02.882Z,29.00
2022-12-23T01:00:48.108Z,29.50
2022-12-23T01:03:33.696Z,29.23
2022-12-23T01:06:01.112Z,30.50
2022-12-23T01:08:28.001Z,30.27
2022-12-23T01:10:54.826Z,30.07
2022-12-23T01:13:21.767Z,31.30
2022-12-23T01:15:48.615Z,31.97
2022-12-23T01:18:18.266Z,31.53
2022-12-23T01:20:47.614Z,33.67
2022-12-23T01:23:17.250Z,31.53
2022-12-23T01:25:44.286Z,32.63
2022-12-23T01:28:13.624Z,32.07
2022-12-23T01:30:40.384Z,33.03
2022-12-23T01:33:07.235Z,32.03
2022-12-23T01:35:34.034Z,32.30
2022-12-23T01:38:00.805Z,33.53
2022-12-23T01:40:27.622Z,32.80
2022-12-23T01:42:54.449Z,34.83
2022-12-23T01:45:28.505Z,34.57
2022-12-23T01:47:59.428Z,34.37
2022-12-23T01:50:28.608Z,33.50
2022-12-23T01:53:13.962Z,32.83
2022-12-23T01:56:11.559Z,34.13
2022-12-23T01:58:41.334Z,34.20
2022-12-23T02:01:26.642Z,33.10
2022-12-23T02:03:56.191Z,34.00
2022-12-23T02:07:01.297Z,33.13
2022-12-23T02:09:35.764Z,32.80
2022-12-23T02:12:14.603Z,32.97
2022-12-23T02:15:31.445Z,33.60
2022-12-23T02:18:04.309Z,32.40
2022-12-23T02:21:01.960Z,34.57
2022-12-23T02:24:12.442Z,34.73
2022-12-23T02:27:10.044Z,33.23
2022-12-23T02:29:46.632Z,33.80
2022-12-23T02:32:18.430Z,33.70
2022-12-23T02:34:51.410Z,32.33
2022-12-23T02:37:25.587Z,32.13
2022-12-23T02:40:04.671Z,31.57
2022-12-23T02:42:39.864Z,32.33
2022-12-23T02:45:09.679Z,31.93
2022-12-23T02:47:51.174Z,30.87
2022-12-23T02:50:20.628Z,31.40
2022-12-23T02:52:49.957Z,30.23
2022-12-23T02:55:22.594Z,29.70
2022-12-23T02:57:49.773Z,29.03
2022-12-23T03:00:17.481Z,30.20
2022-12-23T03:02:46.545Z,28.67
2022-12-23T03:05:35.389Z,29.00
2022-12-23T03:08:06.005Z,30.53
2022-12-23T03:10:51.560Z,28.10
2022-12-23T03:13:27.348Z,31.23
2022-12-23T03:16:40.847Z,29.20
2022-12-23T03:19:19.461Z,30.90
2022-12-23T03:22:23.817Z,31.20
2022-12-23T03:25:05.828Z,30.57
2022-12-23T03:28:05.161Z,31.17
2022-12-23T03:30:32.009Z,31.27
2022-12-23T03:33:03.014Z,32.97
2022-12-23T03:35:36.637Z,34.40
2022-12-23T03:38:05.510Z,33.33
2022-12-23T03:40:57.773Z,32.73
2022-12-23T03:43:33.627Z,32.90
2022-12-23T03:46:03.282Z,32.27
2022-12-23T03:48:39.969Z,34.20
2022-12-23T03:51:12.981Z,33.43
2022-12-23T03:53:46.607Z,31.43
2022-12-23T03:56:20.981Z,31.83
2022-12-23T03:58:59.549Z,30.40
2022-12-23T04:01:29.538Z,30.90
2022-12-23T04:04:48.793Z,30.00
2022-12-23T04:07:27.569Z,29.50
2022-12-23T04:09:54.405Z,30.00
2022-12-23T04:12:22.842Z,29.17
2022-12-23T04:14:49.741Z,29.27
2022-12-23T04:17:19.376Z,27.33
2022-12-23T04:19:46.267Z,29.10
2022-12-23T04:22:16.313Z,29.17
2022-12-23T04:24:43.276Z,28.47
2022-12-23T04:27:12.416Z,29.30
2022-12-23T04:29:39.255Z,27.60
2022-12-23T04:32:06.309Z,28.53
2022-12-23T04:34:35.193Z,28.83
2022-12-23T04:37:04.456Z,29.87
2022-12-23T04:39:33.350Z,30.53
2022-12-23T04:42:00.154Z,33.03
2022-12-23T04:44:26.904Z,32.30
2022-12-23T04:46:53.771Z,34.57
2022-12-23T04:49:22.809Z,33.40
2022-12-23T04:51:49.574Z,32.53
2022-12-23T04:54:18.669Z,32.10
2022-12-23T04:56:45.870Z,32.90
2022-12-23T04:59:12.717Z,30.13
2022-12-23T05:01:39.711Z,32.87
2022-12-23T05:04:11.752Z,32.00
2022-12-23T05:06:39.000Z,31.33
2022-12-23T05:09:05.979Z,32.33
2022-12-23T05:11:37.115Z,30.70
2022-12-23T05:14:07.091Z,27.87
2022-12-23T05:16:34.383Z,27.90
2022-12-23T05:19:01.222Z,27.43
2022-12-23T05:21:28.032Z,25.97
2022-12-23T05:23:57.403Z,25.40
2022-12-23T05:26:24.230Z,25.60
2022-12-23T05:28:53.325Z,25.70
2022-12-23T05:31:20.186Z,24.43
2022-12-23T05:33:47.086Z,25.50
2022-12-23T05:36:14.324Z,26.67
2022-12-23T05:38:41.090Z,27.17
2022-12-23T05:41:07.979Z,27.83
2022-12-23T05:43:35.202Z,27.87
2022-12-23T05:46:02.027Z,29.37
2022-12-23T05:48:28.936Z,29.37
2022-12-23T05:50:55.725Z,29.83
2022-12-23T05:53:23.990Z,27.77
2022-12-23T05:55:50.816Z,27.57
2022-12-23T05:58:17.720Z,25.47
2022-12-23T06:00:44.529Z,25.47
2022-12-23T06:03:12.056Z,23.87
2022-12-23T06:05:39.841Z,26.40
2022-12-23T06:08:06.722Z,25.23
2022-12-23T06:10:33.530Z,25.83
2022-12-23T06:13:00.326Z,25.77
2022-12-23T06:15:27.163Z,25.80
2022-12-23T06:17:53.935Z,24.87
2022-12-23T06:20:25.782Z,24.97
2022-12-23T06:22:52.647Z,25.07
2022-12-23T06:25:19.470Z,26.87
2022-12-23T06:27:46.410Z,26.77
2022-12-23T06:30:15.721Z,23.93
2022-12-23T06:32:42.476Z,26.40
2022-12-23T06:35:09.609Z,26.50
2022-12-23T06:37:36.492Z,26.63
2022-12-23T06:40:03.841Z,27.40
2022-12-23T06:42:30.677Z,26.50
2022-12-23T06:44:59.981Z,28.50
2022-12-23T06:47:26.764Z,27.63
2022-12-23T06:49:58.332Z,26.83
2022-12-23T06:52:29.822Z,28.53
2022-12-23T06:54:56.676Z,28.17
2022-12-23T06:57:23.484Z,27.13
2022-12-23T06:59:50.323Z,27.57
2022-12-23T07:02:17.332Z,26.93
2022-12-23T07:04:46.834Z,27.27
2022-12-23T07:07:15.877Z,26.77
2022-12-23T07:09:44.895Z,27.73
2022-12-23T07:12:11.700Z,26.77
2022-12-23T07:14:38.491Z,27.47
2022-12-23T07:17:05.280Z,25.40
2022-12-23T07:19:32.085Z,26.93
2022-12-23T07:21:59.285Z,26.67
2022-12-23T07:24:26.109Z,26.37
2022-12-23T07:26:52.935Z,27.80
2022-12-23T07:29:19.697Z,24.67
2022-12-23T07:31:49.192Z,26.93
2022-12-23T07:34:16.110Z,24.87
2022-12-23T07:36:42.868Z,24.87
2022-12-23T07:39:11.896Z,24.17
2022-12-23T07:41:40.839Z,25.57
2022-12-23T07:44:11.964Z,24.90
2022-12-23T07:46:46.437Z,23.07
2022-12-23T07:49:13.773Z,23.97
2022-12-23T07:51:40.533Z,24.17
2022-12-23T07:54:09.593Z,23.40
2022-12-23T07:56:36.364Z,23.33
2022-12-23T07:59:03.180Z,23.80
2022-12-23T08:01:30.479Z,23.57
2022-12-23T08:03:57.370Z,29.87
2022-12-23T08:06:29.039Z,23.57
2022-12-23T08:08:56.200Z,23.40
2022-12-23T08:11:25.455Z,24.23
2022-12-23T08:13:52.899Z,26.50
2022-12-23T08:16:21.886Z,23.63
2022-12-23T08:18:48.907Z,24.97
2022-12-23T08:21:18.044Z,24.20
2022-12-23T08:23:45.290Z,25.60
2022-12-23T08:26:21.019Z,25.77
2022-12-23T08:28:48.080Z,25.57
2022-12-23T08:31:18.925Z,26.07
2022-12-23T08:33:50.260Z,25.30
2022-12-23T08:36:22.757Z,25.40
2022-12-23T08:38:55.476Z,24.33
2022-12-23T08:41:24.340Z,27.07
2022-12-23T08:43:51.453Z,26.73
2022-12-23T08:46:18.671Z,27.30
2022-12-23T08:48:49.504Z,27.10
2022-12-23T08:51:17.333Z,26.30
2022-12-23T08:53:46.665Z,26.83
2022-12-23T08:56:19.763Z,26.30
2022-12-23T08:58:53.017Z,25.60
2022-12-23T09:01:22.650Z,23.43
2022-12-23T09:03:51.826Z,26.63
2022-12-23T09:06:26.527Z,26.10
2022-12-23T09:08:55.723Z,24.63
2022-12-23T09:11:24.038Z,25.27
2022-12-23T09:13:50.834Z,23.97
2022-12-23T09:16:17.810Z,24.73
2022-12-23T09:18:46.779Z,24.37
2022-12-23T09:21:15.083Z,25.03
2022-12-23T09:23:43.994Z,24.67
2022-12-23T09:26:18.436Z,25.77
2022-12-23T09:28:45.197Z,24.77
2022-12-23T09:31:14.823Z,26.83
2022-12-23T09:33:43.899Z,28.80
2022-12-23T09:36:10.697Z,35.70
2022-12-23T09:38:38.030Z,30.07
2022-12-23T09:41:25.700Z,26.13
2022-12-23T09:43:58.399Z,25.90
2022-12-23T09:46:27.253Z,26.30
2022-12-23T09:49:13.169Z,26.37
2022-12-23T09:51:40.239Z,24.90
2022-12-23T09:54:34.149Z,24.93
2022-12-23T09:57:23.267Z,25.23
2022-12-23T10:00:03.833Z,24.57
2022-12-23T10:02:30.783Z,24.80
2022-12-23T10:05:31.650Z,24.23
2022-12-23T10:07:59.318Z,23.63
2022-12-23T10:10:49.980Z,22.47
2022-12-23T10:13:27.941Z,23.53
2022-12-23T10:15:55.091Z,23.40
2022-12-23T10:18:40.747Z,23.47
2022-12-23T10:21:42.213Z,24.47
2022-12-23T10:24:21.061Z,24.10
2022-12-23T10:27:01.459Z,22.93
2022-12-23T10:29:31.828Z,23.50
2022-12-23T10:32:17.181Z,23.13
2022-12-23T10:34:44.217Z,23.20
2022-12-23T10:37:19.658Z,23.33
2022-12-23T10:40:15.145Z,24.00
2022-12-23T10:43:27.278Z,22.80
2022-12-23T10:45:54.037Z,23.00
2022-12-23T10:48:38.007Z,23.27
2022-12-23T10:51:18.317Z,23.53
2022-12-23T10:53:59.372Z,25.07
2022-12-23T10:56:28.874Z,24.70
2022-12-23T10:58:56.928Z,23.83
2022-12-23T11:01:27.005Z,24.17
2022-12-23T11:04:13.422Z,24.33
2022-12-23T11:06:42.984Z,26.13
2022-12-23T11:09:18.208Z,24.83
2022-12-23T11:12:00.939Z,23.33
2022-12-23T11:14:41.704Z,24.70
2022-12-23T11:17:27.777Z,25.23
2022-12-23T11:20:12.803Z,25.67
2022-12-23T11:22:49.864Z,24.40
2022-12-23T11:25:34.477Z,25.00
2022-12-23T11:28:10.287Z,25.07
2022-12-23T11:30:39.279Z,25.97
2022-12-23T11:33:14.800Z,26.80
2022-12-23T11:35:41.681Z,25.40
2022-12-23T11:38:11.083Z,27.27
2022-12-23T11:40:38.185Z,25.93
2022-12-23T11:43:13.656Z,25.93
2022-12-23T11:45:40.563Z,26.40
2022-12-23T11:48:31.974Z,26.50
2022-12-23T11:51:02.708Z,25.90
2022-12-23T11:53:30.013Z,27.17
2022-12-23T11:56:06.801Z,28.87
2022-12-23T11:58:45.031Z,26.80
2022-12-23T12:01:23.172Z,27.17
2022-12-23T12:04:00.724Z,25.03
2022-12-23T12:06:27.764Z,29.73
2022-12-23T12:08:55.922Z,28.47
2022-12-23T12:11:27.200Z,24.87
2022-12-23T12:14:04.066Z,25.60
2022-12-23T12:16:30.959Z,25.63
2022-12-23T12:19:00.780Z,25.70
2022-12-23T12:21:29.476Z,25.57
2022-12-23T12:24:17.860Z,42.33
2022-12-23T12:26:51.025Z,26.57
2022-12-23T12:29:23.924Z,26.93
2022-12-23T12:31:55.639Z,25.07
2022-12-23T12:34:27.612Z,24.73
2022-12-23T12:37:10.732Z,25.97
2022-12-23T12:39:43.471Z,26.30
2022-12-23T12:42:19.706Z,25.60
2022-12-23T12:45:02.456Z,26.50
2022-12-23T12:47:58.187Z,27.87
2022-12-23T12:50:34.048Z,26.67
2022-12-23T12:53:11.613Z,25.97
2022-12-23T12:55:42.312Z,26.90
2022-12-23T12:58:17.915Z,26.43
2022-12-23T13:01:05.049Z,26.33
2022-12-23T13:03:52.631Z,26.50
2022-12-23T13:06:56.929Z,26.43
2022-12-23T13:09:35.008Z,25.77
2022-12-23T13:12:04.525Z,25.87
2022-12-23T13:14:53.303Z,26.97
2022-12-23T13:17:40.562Z,25.03
2022-12-23T13:20:16.451Z,25.67
2022-12-23T13:22:43.480Z,25.03
2022-12-23T13:25:16.374Z,27.63
2022-12-23T13:28:07.268Z,26.50
2022-12-23T13:30:38.325Z,26.67
2022-12-23T13:33:23.189Z,25.83
2022-12-23T13:36:10.495Z,27.40
2022-12-23T13:38:40.007Z,26.43
2022-12-23T13:41:15.880Z,27.37
2022-12-23T13:43:53.849Z,27.10
2022-12-23T13:46:23.155Z,28.33
2022-12-23T13:48:56.077Z,26.77
2022-12-23T13:51:30.878Z,27.50
2022-12-23T13:54:20.315Z,27.40
2022-12-23T13:57:08.117Z,27.43
2022-12-23T13:59:47.243Z,27.43
2022-12-23T14:02:36.554Z,28.60
2022-12-23T14:05:16.391Z,25.90
2022-12-23T14:07:43.680Z,27.40
2022-12-23T14:10:12.152Z,27.27
2022-12-23T14:12:39.858Z,29.20
2022-12-23T14:15:31.815Z,28.20
2022-12-23T14:18:23.152Z,28.63
2022-12-23T14:20:53.440Z,29.43
2022-12-23T14:23:33.359Z,28.43
2022-12-23T14:26:41.199Z,27.63
2022-12-23T14:29:38.772Z,29.33
2022-12-23T14:32:17.962Z,28.13
2022-12-23T14:35:15.558Z,27.13
2022-12-23T14:37:42.511Z,28.23
2022-12-23T14:40:40.361Z,29.63
2022-12-23T14:43:22.775Z,29.67
2022-12-23T14:45:54.043Z,28.77
2022-12-23T14:48:44.435Z,29.90
2022-12-23T14:51:16.708Z,29.43
2022-12-23T14:53:53.709Z,31.00
2022-12-23T14:56:27.821Z,30.27
2022-12-23T14:59:09.304Z,29.47
2022-12-23T15:01:51.085Z,30.67
2022-12-23T15:04:23.463Z,29.27
2022-12-23T15:07:03.153Z,30.33
2022-12-23T15:09:31.810Z,29.20
2022-12-23T15:12:04.764Z,28.40
2022-12-23T15:14:32.986Z,28.33
2022-12-23T15:16:59.973Z,28.00
2022-12-23T15:19:31.494Z,29.73
2022-12-23T15:22:20.712Z,29.00
2022-12-23T15:24:50.789Z,28.67
2022-12-23T15:27:29.619Z,29.63
2022-12-23T15:30:02.047Z,28.77
2022-12-23T15:32:28.952Z,30.33
2022-12-23T15:35:05.172Z,32.43
2022-12-23T15:37:32.711Z,30.77
2022-12-23T15:40:06.516Z,29.43
2022-12-23T15:42:43.332Z,30.90
2022-12-23T15:45:37.472Z,31.53
2022-12-23T15:48:05.375Z,31.50
2022-12-23T15:50:40.411Z,32.57
2022-12-23T15:53:15.853Z,31.30
2022-12-23T15:55:42.676Z,30.60
2022-12-23T15:58:18.856Z,31.37
2022-12-23T16:00:51.715Z,30.87
2022-12-23T16:03:34.729Z,31.10
2022-12-23T16:06:17.043Z,30.20
2022-12-23T16:08:55.153Z,32.30
2022-12-23T16:11:24.360Z,33.10
2022-12-23T16:13:58.311Z,33.17
2022-12-23T16:16:31.547Z,32.37
2022-12-23T16:19:01.316Z,32.30
2022-12-23T16:21:37.804Z,32.73
2022-12-23T16:24:07.856Z,32.73
2022-12-23T16:26:43.291Z,33.90
2022-12-23T16:29:10.091Z,34.10
2022-12-23T16:31:48.295Z,31.77
2022-12-23T16:34:21.133Z,32.43
2022-12-23T16:36:47.961Z,33.47
2022-12-23T16:39:24.232Z,31.77
2022-12-23T16:41:53.560Z,32.83
2022-12-23T16:44:20.392Z,33.63
2022-12-23T16:46:52.812Z,31.23
2022-12-23T16:49:21.059Z,33.27
2022-12-23T16:51:50.359Z,35.23
2022-12-23T16:54:22.412Z,37.10
2022-12-23T16:56:50.089Z,37.10
2022-12-23T16:59:16.937Z,34.37
2022-12-23T17:01:47.385Z,31.70
2022-12-23T17:04:14.454Z,32.53
2022-12-23T17:06:43.507Z,34.57
2022-12-23T17:09:10.489Z,31.73
2022-12-23T17:11:48.031Z,32.97
2022-12-23T17:14:18.000Z,32.10
2022-12-23T17:16:45.363Z,33.90
2022-12-23T17:19:12.324Z,30.80
2022-12-23T17:21:41.976Z,33.93
2022-12-23T17:24:25.566Z,34.23
2022-12-23T17:26:55.214Z,33.43
2022-12-23T17:29:22.056Z,36.53
2022-12-23T17:31:49.173Z,37.03
2022-12-23T17:34:20.434Z,36.73
2022-12-23T17:36:50.995Z,36.63
2022-12-23T17:39:20.629Z,35.23
2022-12-23T17:41:47.429Z,35.57
2022-12-23T17:44:14.829Z,35.40
2022-12-23T17:46:43.918Z,34.47
2022-12-23T17:49:10.750Z,34.43
2022-12-23T17:51:40.278Z,35.80
2022-12-23T17:54:07.123Z,35.07
2022-12-23T17:56:34.038Z,35.47
2022-12-23T17:59:00.793Z,32.50
2022-12-23T18:01:29.840Z,34.13
2022-12-23T18:03:57.360Z,33.60
2022-12-23T18:06:25.000Z,32.13
2022-12-23T18:08:56.971Z,30.53
2022-12-23T18:11:27.606Z,31.57
2022-12-23T18:13:54.441Z,31.47
2022-12-23T18:16:23.731Z,32.93
2022-12-23T18:18:51.550Z,31.00
2022-12-23T18:21:21.802Z,30.53
2022-12-23T18:23:50.865Z,31.30
2022-12-23T18:26:17.722Z,31.20
2022-12-23T18:28:46.701Z,31.23
2022-12-23T18:31:18.510Z,29.93
2022-12-23T18:33:45.353Z,30.57
2022-12-23T18:36:24.413Z,28.20
2022-12-23T18:38:53.584Z,28.03
2022-12-23T18:41:21.511Z,29.27
2022-12-23T18:43:48.408Z,26.73
2022-12-23T18:46:17.651Z,25.87
2022-12-23T18:48:51.518Z,26.70
2022-12-23T18:51:21.026Z,25.33
2022-12-23T18:53:48.028Z,26.20
2022-12-23T18:56:19.304Z,26.23
2022-12-23T18:58:46.103Z,24.83
2022-12-23T19:01:13.865Z,27.00
2022-12-23T19:03:40.898Z,26.00
2022-12-23T19:06:08.244Z,23.70
2022-12-23T19:08:37.653Z,26.17
2022-12-23T19:11:18.390Z,26.97
2022-12-23T19:13:50.321Z,27.27
2022-12-23T19:16:21.197Z,26.50
2022-12-23T19:18:51.690Z,25.10
2022-12-23T19:21:21.834Z,24.90
2022-12-23T19:23:48.832Z,24.83
2022-12-23T19:26:20.595Z,25.00
2022-12-23T19:28:48.639Z,25.20
2022-12-23T19:31:15.962Z,25.40
2022-12-23T19:33:49.298Z,22.67
2022-12-23T19:36:27.035Z,23.17
2022-12-23T19:38:53.909Z,23.07
2022-12-23T19:41:20.722Z,22.40
2022-12-23T19:43:47.605Z,20.80
2022-12-23T19:46:15.093Z,21.57
2022-12-23T19:48:42.038Z,23.00
2022-12-23T19:51:10.623Z,22.47
2022-12-23T19:53:38.485Z,22.33
2022-12-23T19:56:15.465Z,22.67
2022-12-23T19:58:45.176Z,22.47
2022-12-23T20:01:16.825Z,23.50
2022-12-23T20:03:44.130Z,22.97
2022-12-23T20:06:38.314Z,22.93
2022-12-23T20:09:08.704Z,22.40
2022-12-23T20:11:39.693Z,24.33
2022-12-23T20:14:09.574Z,23.77
2022-12-23T20:16:36.685Z,22.50
2022-12-23T20:19:03.645Z,24.40
2022-12-23T20:21:33.033Z,24.77
2022-12-23T20:24:00.004Z,23.93
2022-12-23T20:26:27.730Z,22.30
2022-12-23T20:28:54.821Z,23.00
2022-12-23T20:31:29.002Z,24.40
2022-12-23T20:33:58.579Z,23.80
2022-12-23T20:36:27.220Z,24.47
2022-12-23T20:38:54.215Z,24.13
2022-12-23T20:41:22.406Z,25.03
2022-12-23T20:44:23.360Z,24.87
2022-12-23T20:46:41.381Z,24.53
2022-12-23T20:49:08.491Z,26.37
2022-12-23T20:51:35.254Z,25.27
2022-12-23T20:54:02.122Z,26.70
2022-12-23T20:56:30.399Z,25.57
2022-12-23T20:59:03.965Z,26.97
2022-12-23T21:01:40.083Z,27.57
2022-12-23T21:04:08.958Z,28.67
2022-12-23T21:06:38.466Z,27.33
2022-12-23T21:09:07.186Z,27.80
2022-12-23T21:11:37.448Z,26.97
2022-12-23T21:14:07.822Z,26.97
2022-12-23T21:16:35.860Z,28.33
2022-12-23T21:19:15.823Z,29.07
2022-12-23T21:21:45.122Z,29.07
2022-12-23T21:24:14.406Z,30.93
2022-12-23T21:26:43.857Z,30.60
2022-12-23T21:29:10.858Z,29.97
2022-12-23T21:31:39.110Z,31.50
2022-12-23T21:34:06.324Z,30.97
2022-12-23T21:36:35.258Z,30.43
2022-12-23T21:39:04.948Z,28.87
2022-12-23T21:41:35.388Z,30.50
2022-12-23T21:44:04.612Z,30.60
2022-12-23T21:46:31.512Z,30.07
2022-12-23T21:49:00.787Z,30.40
2022-12-23T21:51:39.388Z,28.83
2022-12-23T21:54:07.351Z,28.57
2022-12-23T21:56:39.554Z,30.33
2022-12-23T21:59:08.419Z,29.87
2022-12-23T22:01:38.071Z,28.63
2022-12-23T22:04:05.038Z,29.33
2022-12-23T22:06:41.415Z,28.97
2022-12-23T22:09:08.357Z,29.30
2022-12-23T22:11:38.820Z,30.83
2022-12-23T22:14:06.766Z,28.10
2022-12-23T22:16:33.694Z,29.17
2022-12-23T22:19:06.722Z,29.57
2022-12-23T22:21:33.636Z,29.87
2022-12-23T22:24:00.480Z,29.37
2022-12-23T22:26:33.107Z,31.40
2022-12-23T22:29:01.264Z,30.73
2022-12-23T22:31:37.446Z,30.43
2022-12-23T22:34:06.803Z,31.07
2022-12-23T22:36:36.426Z,31.33
2022-12-23T22:39:03.558Z,30.33
2022-12-23T22:41:33.473Z,29.97
2022-12-23T22:44:07.996Z,31.07
2022-12-23T22:46:34.789Z,30.30
2022-12-23T22:49:01.745Z,33.23
2022-12-23T22:51:31.128Z,32.60
2022-12-23T22:53:57.988Z,32.43
2022-12-23T22:56:27.459Z,31.97
2022-12-23T22:58:58.786Z,31.67
2022-12-23T23:01:29.435Z,32.63
2022-12-23T23:03:58.066Z,32.27
2022-12-23T23:06:25.903Z,33.83
2022-12-23T23:08:52.980Z,32.63
2022-12-23T23:11:19.800Z,31.47
2022-12-23T23:13:46.611Z,31.47
2022-12-23T23:16:13.550Z,31.57
2022-12-23T23:18:40.462Z,31.63
2022-12-23T23:21:13.667Z,32.97
2022-12-23T23:23:40.481Z,31.63
2022-12-23T23:26:09.150Z,32.90
2022-12-23T23:28:39.377Z,32.23
2022-12-23T23:31:40.381Z,33.30
2022-12-23T23:34:00.341Z,33.23
2022-12-23T23:36:27.231Z,32.20
2022-12-23T23:38:54.171Z,33.13
2022-12-23T23:41:25.669Z,31.70
2022-12-23T23:43:55.012Z,32.30
2022-12-23T23:46:21.929Z,33.47
2022-12-23T23:48:48.769Z,32.63
2022-12-23T23:51:15.652Z,33.57
2022-12-23T23:53:42.497Z,32.03
2022-12-23T23:56:12.043Z,32.97
2022-12-23T23:58:38.798Z,32.90
